createdAt,value
2019-02-19T00:00:45.800Z,11.77
2019-02-19T00:03:14.926Z,11.93
2019-02-19T00:05:44.123Z,11.33
2019-02-19T00:08:13.342Z,12.13
2019-02-19T00:10:42.747Z,12.10
2019-02-19T00:13:12.064Z,11.17
2019-02-19T00:15:41.567Z,11.63
2019-02-19T00:18:10.794Z,12.17
2019-02-19T00:20:39.988Z,12.27
2019-02-19T00:23:09.109Z,11.77
2019-02-19T00:25:38.498Z,11.20
2019-02-19T00:28:10.566Z,12.50
2019-02-19T00:30:39.859Z,12.13
2019-02-19T00:33:08.977Z,12.13
2019-02-19T00:35:38.193Z,11.70
2019-02-19T00:38:07.410Z,12.23
2019-02-19T00:40:36.786Z,11.10
2019-02-19T00:43:06.027Z,11.07
2019-02-19T00:45:35.331Z,10.53
2019-02-19T00:48:04.661Z,11.60
2019-02-19T00:50:33.966Z,11.50
2019-02-19T00:53:03.178Z,11.37
2019-02-19T00:55:32.374Z,10.50
2019-02-19T00:58:01.503Z,12.13
2019-02-19T01:00:30.700Z,11.37
2019-02-19T01:03:00.034Z,12.23
2019-02-19T01:05:29.355Z,11.20
2019-02-19T01:07:58.782Z,10.87
2019-02-19T01:10:28.117Z,11.23
2019-02-19T01:12:57.399Z,11.63
2019-02-19T01:15:26.723Z,11.77
2019-02-19T01:17:55.934Z,11.33
2019-02-19T01:20:25.270Z,10.17
2019-02-19T01:22:54.660Z,10.43
2019-02-19T01:25:23.783Z,10.50
2019-02-19T01:27:53.088Z,10.03
2019-02-19T01:30:22.318Z,9.73
2019-02-19T01:32:51.489Z,9.53
2019-02-19T01:35:20.723Z,9.97
2019-02-19T01:37:49.928Z,10.53
2019-02-19T01:40:19.152Z,9.80
2019-02-19T01:42:48.450Z,10.70
2019-02-19T01:45:17.661Z,10.40
2019-02-19T01:47:47.058Z,9.47
2019-02-19T01:50:16.291Z,10.43
2019-02-19T01:52:45.581Z,9.70
2019-02-19T01:55:14.811Z,10.97
2019-02-19T01:57:44.006Z,11.00
2019-02-19T02:00:13.935Z,11.20
2019-02-19T02:02:43.235Z,10.53
2019-02-19T02:05:12.452Z,10.93
2019-02-19T02:07:41.636Z,10.50
2019-02-19T02:10:10.858Z,9.97
2019-02-19T02:12:40.347Z,9.00
2019-02-19T02:15:09.586Z,9.67
2019-02-19T02:17:38.871Z,9.87
2019-02-19T02:20:08.801Z,10.43
2019-02-19T02:22:38.091Z,11.10
2019-02-19T02:25:07.523Z,11.33
2019-02-19T02:27:36.640Z,9.93
2019-02-19T02:30:07.530Z,10.80
2019-02-19T02:32:36.757Z,10.73
2019-02-19T02:35:06.261Z,10.83
2019-02-19T02:37:35.392Z,11.20
2019-02-19T02:40:06.092Z,10.93
2019-02-19T02:42:35.433Z,10.70
2019-02-19T02:45:05.233Z,10.40
2019-02-19T02:47:34.475Z,10.53
2019-02-19T02:50:04.175Z,11.10
2019-02-19T02:52:33.402Z,10.67
2019-02-19T02:55:02.616Z,10.73
2019-02-19T02:57:31.815Z,10.57
2019-02-19T03:00:01.322Z,11.20
2019-02-19T03:02:30.451Z,11.77
2019-02-19T03:04:59.654Z,12.37
2019-02-19T03:07:33.472Z,11.43
2019-02-19T03:10:02.748Z,10.87
2019-02-19T03:12:31.985Z,12.23
2019-02-19T03:15:01.160Z,11.27
2019-02-19T03:17:30.406Z,12.10
2019-02-19T03:19:59.617Z,11.50
2019-02-19T03:22:28.740Z,11.57
2019-02-19T03:24:58.118Z,11.43
2019-02-19T03:27:27.253Z,12.97
2019-02-19T03:29:56.531Z,11.97
2019-02-19T03:32:25.658Z,11.30
2019-02-19T03:34:54.858Z,12.10
2019-02-19T03:37:23.980Z,11.80
2019-02-19T03:39:53.189Z,12.73
2019-02-19T03:42:22.407Z,11.03
2019-02-19T03:44:51.701Z,10.97
2019-02-19T03:47:20.815Z,9.90
2019-02-19T03:49:50.018Z,11.77
2019-02-19T03:52:19.152Z,10.87
2019-02-19T03:54:48.457Z,11.77
2019-02-19T03:57:17.887Z,11.60
2019-02-19T03:59:47.202Z,11.33
2019-02-19T04:02:16.501Z,12.10
2019-02-19T04:04:45.712Z,11.63
2019-02-19T04:07:14.917Z,12.00
2019-02-19T04:09:44.031Z,11.63
2019-02-19T04:12:13.220Z,11.50
2019-02-19T04:14:42.452Z,12.10
2019-02-19T04:17:11.751Z,13.07
2019-02-19T04:19:40.888Z,12.33
2019-02-19T04:22:10.174Z,13.07
2019-02-19T04:24:39.287Z,11.50
2019-02-19T04:27:08.577Z,12.80
2019-02-19T04:29:38.003Z,12.37
2019-02-19T04:32:07.206Z,11.57
2019-02-19T04:34:36.322Z,12.27
2019-02-19T04:37:05.503Z,12.60
2019-02-19T04:39:34.723Z,11.83
2019-02-19T04:42:04.103Z,11.50
2019-02-19T04:44:33.224Z,12.27
2019-02-19T04:47:02.609Z,11.43
2019-02-19T04:49:31.750Z,12.03
2019-02-19T04:52:01.049Z,12.30
2019-02-19T04:54:30.289Z,11.00
2019-02-19T04:56:59.574Z,13.23
2019-02-19T04:59:28.799Z,11.10
2019-02-19T05:01:58.112Z,14.23
2019-02-19T05:04:27.319Z,13.80
2019-02-19T05:06:56.609Z,13.80
2019-02-19T05:09:25.833Z,13.40
2019-02-19T05:11:55.045Z,12.47
2019-02-19T05:14:24.270Z,12.53
2019-02-19T05:16:53.464Z,14.03
2019-02-19T05:19:22.877Z,13.63
2019-02-19T05:21:51.995Z,19.37
2019-02-19T05:24:21.171Z,15.80
2019-02-19T05:26:50.391Z,13.60
2019-02-19T05:29:19.694Z,13.27
2019-02-19T05:31:48.809Z,12.87
2019-02-19T05:34:19.463Z,13.07
2019-02-19T05:36:48.642Z,12.57
2019-02-19T05:39:17.941Z,12.80
2019-02-19T05:41:47.064Z,13.57
2019-02-19T05:44:16.265Z,13.87
2019-02-19T05:46:49.967Z,14.77
2019-02-19T05:49:16.422Z,15.97
2019-02-19T05:51:45.545Z,15.10
2019-02-19T05:54:14.728Z,15.60
2019-02-19T05:56:43.843Z,14.73
2019-02-19T05:59:13.035Z,14.53
2019-02-19T06:01:42.157Z,13.83
2019-02-19T06:04:11.440Z,13.57
2019-02-19T06:06:40.553Z,14.47
2019-02-19T06:09:09.750Z,13.93
2019-02-19T06:11:38.863Z,13.33
2019-02-19T06:14:08.047Z,11.53
2019-02-19T06:16:37.169Z,13.40
2019-02-19T06:19:06.348Z,13.90
2019-02-19T06:21:35.459Z,13.77
2019-02-19T06:24:04.852Z,14.57
2019-02-19T06:26:33.963Z,14.83
2019-02-19T06:29:06.363Z,13.57
2019-02-19T06:31:35.471Z,14.37
2019-02-19T06:34:04.744Z,15.27
2019-02-19T06:36:33.866Z,14.30
2019-02-19T06:39:03.063Z,13.37
2019-02-19T06:41:32.497Z,15.00
2019-02-19T06:44:01.683Z,13.40
2019-02-19T06:46:30.899Z,13.33
2019-02-19T06:49:00.016Z,13.23
2019-02-19T06:51:29.298Z,14.20
2019-02-19T06:53:58.417Z,14.53
2019-02-19T06:56:27.710Z,13.00
2019-02-19T06:58:56.832Z,14.37
2019-02-19T07:01:27.598Z,14.23
2019-02-19T07:04:01.159Z,15.53
2019-02-19T07:06:30.794Z,15.53
2019-02-19T07:08:59.977Z,13.80
2019-02-19T07:11:29.148Z,14.87
2019-02-19T07:13:58.262Z,15.07
2019-02-19T07:16:27.446Z,15.10
2019-02-19T07:18:56.564Z,14.33
2019-02-19T07:21:25.741Z,15.00
2019-02-19T07:24:04.211Z,15.10
2019-02-19T07:26:25.785Z,14.73
2019-02-19T07:28:54.895Z,14.60
2019-02-19T07:31:24.094Z,13.90
2019-02-19T07:33:53.207Z,12.83
2019-02-19T07:36:22.385Z,14.53
2019-02-19T07:38:52.489Z,13.27
2019-02-19T07:41:21.795Z,13.83
2019-02-19T07:43:50.905Z,13.57
2019-02-19T07:46:20.208Z,14.53
2019-02-19T07:48:49.326Z,14.40
2019-02-19T07:51:18.505Z,15.07
2019-02-19T07:53:47.619Z,13.70
2019-02-19T07:56:16.808Z,15.17
2019-02-19T07:58:45.921Z,15.40
2019-02-19T08:01:15.203Z,13.63
2019-02-19T08:03:44.320Z,13.07
2019-02-19T08:06:13.510Z,14.37
2019-02-19T08:08:42.628Z,13.97
2019-02-19T08:11:11.812Z,12.47
2019-02-19T08:13:40.916Z,12.03
2019-02-19T08:16:10.115Z,12.53
2019-02-19T08:18:39.231Z,12.23
2019-02-19T08:21:08.415Z,11.77
2019-02-19T08:23:37.532Z,10.90
2019-02-19T08:26:06.703Z,11.00
2019-02-19T08:28:35.826Z,12.07
2019-02-19T08:31:05.253Z,10.90
2019-02-19T08:33:34.445Z,10.33
2019-02-19T08:36:03.577Z,10.40
2019-02-19T08:38:32.847Z,9.63
2019-02-19T08:41:01.976Z,9.70
2019-02-19T08:43:31.155Z,9.43
2019-02-19T08:46:00.270Z,9.40
2019-02-19T08:48:29.564Z,9.40
2019-02-19T08:50:58.770Z,8.17
2019-02-19T08:53:27.949Z,8.60
2019-02-19T08:55:57.161Z,8.03
2019-02-19T08:58:26.362Z,9.50
2019-02-19T09:00:55.484Z,14.43
2019-02-19T09:03:24.668Z,8.13
2019-02-19T09:05:53.976Z,7.43
2019-02-19T09:08:23.178Z,7.37
2019-02-19T09:10:52.486Z,6.10
2019-02-19T09:13:21.779Z,5.40
2019-02-19T09:15:50.902Z,7.10
2019-02-19T09:18:20.097Z,5.37
2019-02-19T09:20:49.407Z,5.80
2019-02-19T09:23:18.707Z,5.23
2019-02-19T09:25:48.014Z,5.00
2019-02-19T09:28:17.431Z,4.93
2019-02-19T09:30:46.656Z,4.90
2019-02-19T09:33:15.930Z,5.13
2019-02-19T09:35:45.366Z,4.03
2019-02-19T09:38:14.669Z,4.73
2019-02-19T09:40:43.790Z,4.47
2019-02-19T09:43:13.019Z,4.60
2019-02-19T09:45:42.216Z,4.73
2019-02-19T09:48:11.316Z,4.03
2019-02-19T09:50:40.517Z,4.40
2019-02-19T09:53:09.635Z,5.07
2019-02-19T09:55:38.817Z,4.47
2019-02-19T09:58:07.929Z,5.13
2019-02-19T10:00:37.109Z,4.40
2019-02-19T10:03:06.421Z,4.60
2019-02-19T10:05:35.603Z,4.70
2019-02-19T10:08:04.913Z,4.30
2019-02-19T10:10:34.114Z,3.80
2019-02-19T10:13:03.225Z,4.83
2019-02-19T10:15:32.398Z,4.23
2019-02-19T10:18:09.693Z,4.00
2019-02-19T10:20:32.454Z,4.40
2019-02-19T10:23:01.665Z,4.40
2019-02-19T10:25:30.862Z,3.80
2019-02-19T10:28:00.108Z,4.63
2019-02-19T10:30:29.256Z,4.33
2019-02-19T10:32:58.490Z,4.73
2019-02-19T10:35:27.761Z,4.47
2019-02-19T10:37:57.017Z,4.47
2019-02-19T10:40:26.391Z,4.87
2019-02-19T10:42:55.735Z,6.23
2019-02-19T10:45:26.410Z,4.53
2019-02-19T10:47:55.906Z,4.53
2019-02-19T10:50:25.238Z,4.60
2019-02-19T10:52:54.573Z,4.40
2019-02-19T10:55:26.556Z,4.33
2019-02-19T10:57:55.679Z,4.30
2019-02-19T11:00:25.362Z,4.27
2019-02-19T11:02:54.494Z,4.17
2019-02-19T11:05:23.991Z,4.37
2019-02-19T11:07:53.312Z,4.37
2019-02-19T11:10:22.621Z,4.00
2019-02-19T11:12:51.725Z,4.17
2019-02-19T11:15:20.913Z,4.60
2019-02-19T11:17:50.123Z,4.30
2019-02-19T11:20:23.150Z,4.27
2019-02-19T11:22:52.457Z,4.20
2019-02-19T11:25:21.653Z,4.87
2019-02-19T11:27:50.844Z,4.87
2019-02-19T11:30:20.751Z,5.27
2019-02-19T11:32:50.154Z,4.83
2019-02-19T11:35:19.505Z,4.90
2019-02-19T11:37:48.666Z,5.10
2019-02-19T11:40:17.811Z,5.60
2019-02-19T11:42:47.096Z,5.53
2019-02-19T11:45:17.709Z,4.70
2019-02-19T11:47:46.896Z,5.40
2019-02-19T11:50:16.230Z,5.00
2019-02-19T11:52:46.956Z,5.20
2019-02-19T11:55:18.194Z,4.97
2019-02-19T11:57:49.930Z,5.13
2019-02-19T12:00:20.717Z,4.77
2019-02-19T12:02:49.897Z,4.97
2019-02-19T12:05:19.462Z,5.20
2019-02-19T12:07:48.749Z,5.37
2019-02-19T12:10:17.861Z,5.03
2019-02-19T12:12:47.182Z,5.10
2019-02-19T12:15:16.428Z,5.27
2019-02-19T12:17:45.802Z,4.77
2019-02-19T12:20:15.429Z,5.17
2019-02-19T12:22:44.959Z,5.80
2019-02-19T12:25:14.688Z,5.00
2019-02-19T12:27:45.175Z,5.70
2019-02-19T12:30:16.448Z,5.97
2019-02-19T12:32:45.835Z,5.97
2019-02-19T12:35:15.149Z,6.40
2019-02-19T12:37:44.539Z,5.53
2019-02-19T12:40:14.572Z,6.27
2019-02-19T12:42:43.972Z,6.40
2019-02-19T12:45:14.913Z,7.07
2019-02-19T12:47:44.191Z,6.53
2019-02-19T12:50:15.614Z,6.63
2019-02-19T12:52:45.103Z,6.77
2019-02-19T12:55:14.429Z,8.40
2019-02-19T12:57:44.519Z,7.33
2019-02-19T13:00:18.093Z,7.60
2019-02-19T13:02:47.379Z,7.40
2019-02-19T13:05:17.110Z,7.97
2019-02-19T13:07:47.059Z,7.47
2019-02-19T13:10:16.427Z,7.47
2019-02-19T13:12:45.639Z,7.80
2019-02-19T13:15:22.410Z,7.73
2019-02-19T13:17:51.632Z,7.87
2019-02-19T13:20:21.013Z,7.13
2019-02-19T13:22:50.241Z,7.73
2019-02-19T13:25:19.522Z,7.47
2019-02-19T13:27:48.754Z,7.30
2019-02-19T13:30:19.738Z,7.87
2019-02-19T13:32:49.041Z,8.23
2019-02-19T13:35:18.215Z,8.73
2019-02-19T13:37:47.425Z,7.77
2019-02-19T13:40:18.672Z,8.47
2019-02-19T13:42:47.910Z,8.63
2019-02-19T13:45:17.290Z,8.57
2019-02-19T13:47:46.397Z,9.80
2019-02-19T13:50:20.958Z,9.07
2019-02-19T13:52:54.456Z,8.90
2019-02-19T13:55:25.217Z,8.93
2019-02-19T13:57:54.359Z,9.20
2019-02-19T14:00:25.186Z,9.17
2019-02-19T14:02:54.413Z,9.27
2019-02-19T14:05:23.698Z,9.00
2019-02-19T14:07:52.917Z,9.57
2019-02-19T14:10:22.097Z,8.77
2019-02-19T14:12:51.329Z,10.00
2019-02-19T14:15:38.388Z,10.13
2019-02-19T14:18:09.087Z,9.70
2019-02-19T14:20:55.975Z,10.80
2019-02-19T14:23:42.723Z,10.03
2019-02-19T14:26:13.624Z,9.93
2019-02-19T14:29:00.596Z,9.90
2019-02-19T14:31:40.147Z,10.30
2019-02-19T14:34:10.845Z,10.07
2019-02-19T14:36:50.638Z,9.90
2019-02-19T14:39:21.363Z,10.30
2019-02-19T14:42:08.418Z,9.50
2019-02-19T14:44:55.437Z,9.93
2019-02-19T14:47:42.120Z,10.27
2019-02-19T14:50:21.463Z,10.33
2019-02-19T14:52:55.218Z,10.83
2019-02-19T14:55:29.101Z,10.63
2019-02-19T14:58:08.268Z,10.60
2019-02-19T15:00:57.252Z,9.87
2019-02-19T15:03:27.982Z,10.57
2019-02-19T15:06:17.043Z,10.30
2019-02-19T15:08:53.893Z,11.47
2019-02-19T15:11:24.676Z,11.13
2019-02-19T15:14:01.196Z,11.30
2019-02-19T15:16:31.922Z,10.60
2019-02-19T15:19:02.651Z,13.90
2019-02-19T15:21:36.416Z,12.10
2019-02-19T15:24:22.048Z,10.87
2019-02-19T15:26:54.551Z,10.83
2019-02-19T15:29:41.418Z,10.97
2019-02-19T15:32:12.298Z,11.87
2019-02-19T15:34:46.121Z,11.83
2019-02-19T15:37:28.669Z,11.47
2019-02-19T15:40:05.410Z,12.73
2019-02-19T15:42:38.927Z,12.37
2019-02-19T15:45:13.787Z,12.47
2019-02-19T15:48:00.255Z,12.50
2019-02-19T15:50:47.020Z,12.33
2019-02-19T15:53:26.915Z,11.57
2019-02-19T15:56:17.178Z,12.93
2019-02-19T15:58:45.043Z,12.73
2019-02-19T16:01:31.459Z,12.57
2019-02-19T16:04:18.349Z,17.60
2019-02-19T16:06:49.066Z,14.50
2019-02-19T16:09:25.329Z,18.57
2019-02-19T16:11:56.052Z,13.10
2019-02-19T16:14:32.723Z,12.80
2019-02-19T16:17:03.446Z,13.30
2019-02-19T16:19:37.185Z,12.13
2019-02-19T16:22:19.868Z,13.17
2019-02-19T16:24:53.630Z,13.80
2019-02-19T16:27:27.050Z,11.27
2019-02-19T16:29:59.263Z,12.70
2019-02-19T16:32:48.112Z,13.30
2019-02-19T16:35:35.095Z,11.53
2019-02-19T16:38:11.332Z,12.67
2019-02-19T16:40:42.473Z,12.13
2019-02-19T16:43:15.919Z,12.90
2019-02-19T16:45:46.766Z,12.43
2019-02-19T16:48:29.653Z,12.07
2019-02-19T16:51:02.036Z,11.20
2019-02-19T16:53:32.690Z,12.93
2019-02-19T16:56:06.199Z,13.53
2019-02-19T16:58:36.920Z,12.57
2019-02-19T17:01:24.896Z,14.63
2019-02-19T17:03:55.666Z,11.47
2019-02-19T17:06:26.571Z,12.43
2019-02-19T17:08:57.289Z,12.33
2019-02-19T17:11:31.403Z,12.40
2019-02-19T17:14:04.832Z,12.43
2019-02-19T17:16:38.482Z,11.17
2019-02-19T17:19:11.834Z,12.33
2019-02-19T17:21:42.639Z,14.13
2019-02-19T17:24:16.404Z,14.33
2019-02-19T17:26:53.003Z,12.97
2019-02-19T17:29:29.551Z,13.43
2019-02-19T17:32:12.426Z,13.33
2019-02-19T17:34:46.177Z,13.77
2019-02-19T17:37:33.289Z,14.53
2019-02-19T17:40:04.033Z,12.43
2019-02-19T17:42:43.670Z,13.67
2019-02-19T17:45:17.570Z,12.70
2019-02-19T17:48:00.200Z,12.17
2019-02-19T17:50:38.138Z,12.97
2019-02-19T17:53:06.573Z,12.90
2019-02-19T17:55:42.993Z,13.07
2019-02-19T17:58:13.795Z,12.90
2019-02-19T18:00:44.636Z,12.40
2019-02-19T18:03:15.490Z,12.43
2019-02-19T18:05:46.212Z,12.43
2019-02-19T18:08:17.144Z,10.97
2019-02-19T18:10:51.403Z,12.57
2019-02-19T18:13:31.112Z,12.03
2019-02-19T18:16:10.676Z,12.57
2019-02-19T18:18:52.362Z,13.10
2019-02-19T18:21:21.746Z,12.90
2019-02-19T18:23:51.257Z,13.03
2019-02-19T18:26:20.662Z,13.90
2019-02-19T18:28:49.861Z,12.30
2019-02-19T18:31:18.969Z,12.40
2019-02-19T18:33:48.301Z,10.90
2019-02-19T18:36:17.601Z,12.37
2019-02-19T18:38:46.885Z,11.60
2019-02-19T18:41:15.998Z,13.60
2019-02-19T18:43:47.314Z,14.15
2019-02-19T18:46:17.204Z,15.87
2019-02-19T18:48:46.605Z,17.97
2019-02-19T18:51:15.835Z,15.57
2019-02-19T18:53:45.126Z,13.97
2019-02-19T18:56:14.343Z,14.67
2019-02-19T18:58:43.624Z,16.50
2019-02-19T19:01:12.856Z,18.23
2019-02-19T19:03:42.064Z,25.50
2019-02-19T19:06:11.177Z,15.03
2019-02-19T19:08:40.467Z,12.07
2019-02-19T19:11:09.850Z,14.07
2019-02-19T19:13:39.109Z,13.17
2019-02-19T19:16:08.434Z,13.60
2019-02-19T19:18:37.614Z,13.93
2019-02-19T19:21:08.227Z,14.27
2019-02-19T19:23:37.638Z,13.20
2019-02-19T19:26:07.079Z,13.70
2019-02-19T19:28:36.434Z,13.30
2019-02-19T19:31:05.932Z,15.03
2019-02-19T19:33:35.245Z,15.37
2019-02-19T19:36:04.654Z,15.17
2019-02-19T19:38:34.013Z,13.70
2019-02-19T19:41:03.535Z,15.40
2019-02-19T19:43:32.755Z,13.03
2019-02-19T19:46:02.086Z,13.50
2019-02-19T19:48:31.296Z,13.07
2019-02-19T19:51:02.254Z,13.57
2019-02-19T19:53:31.504Z,14.47
2019-02-19T19:56:00.791Z,13.57
2019-02-19T19:58:29.887Z,15.20
2019-02-19T20:00:59.070Z,14.60
2019-02-19T20:03:28.185Z,14.83
2019-02-19T20:05:57.373Z,15.47
2019-02-19T20:08:26.488Z,15.23
2019-02-19T20:10:58.836Z,14.10
2019-02-19T20:13:28.162Z,15.60
2019-02-19T20:15:57.492Z,17.30
2019-02-19T20:18:26.773Z,20.30
2019-02-19T20:20:56.174Z,17.97
2019-02-19T20:23:25.398Z,18.43
2019-02-19T20:25:55.942Z,16.57
2019-02-19T20:28:25.285Z,17.00
2019-02-19T20:30:54.788Z,17.17
2019-02-19T20:33:24.039Z,18.60
2019-02-19T20:35:53.341Z,20.63
2019-02-19T20:38:23.707Z,17.63
2019-02-19T20:40:53.014Z,19.57
2019-02-19T20:43:22.461Z,18.00
2019-02-19T20:45:51.973Z,19.03
2019-02-19T20:48:21.335Z,16.20
2019-02-19T20:50:50.738Z,15.00
2019-02-19T20:53:23.287Z,15.90
2019-02-19T20:55:52.628Z,16.90
2019-02-19T20:58:21.991Z,16.67
2019-02-19T21:00:53.237Z,18.10
2019-02-19T21:03:22.555Z,17.37
2019-02-19T21:05:51.876Z,18.47
2019-02-19T21:08:21.378Z,18.70
2019-02-19T21:13:57.611Z,16.77
2019-02-19T21:16:27.277Z,17.80
2019-02-19T21:18:56.673Z,17.33
2019-02-19T21:21:26.002Z,17.00
2019-02-19T21:23:55.249Z,19.67
2019-02-19T21:26:24.472Z,17.43
2019-02-19T21:28:53.665Z,17.17
2019-02-19T21:31:22.884Z,17.73
2019-02-19T21:33:52.276Z,17.27
2019-02-19T21:36:21.615Z,14.97
2019-02-19T21:38:52.461Z,16.60
2019-02-19T21:41:21.848Z,16.47
2019-02-19T21:43:51.256Z,16.67
2019-02-19T21:46:20.493Z,17.67
2019-02-19T21:48:49.806Z,17.10
2019-02-19T21:51:19.060Z,19.47
2019-02-19T21:53:48.461Z,18.10
2019-02-19T21:56:17.716Z,17.80
2019-02-19T21:58:47.028Z,18.67
2019-02-19T22:01:16.385Z,17.20
2019-02-19T22:03:45.744Z,17.93
2019-02-19T22:06:15.384Z,18.90
2019-02-19T22:08:44.838Z,17.77
2019-02-19T22:11:14.221Z,16.83
2019-02-19T22:13:43.780Z,16.37
2019-02-19T22:16:13.144Z,16.93
2019-02-19T22:18:42.467Z,17.27
2019-02-19T22:21:13.293Z,17.23
2019-02-19T22:23:42.606Z,17.27
2019-02-19T22:26:12.059Z,17.63
2019-02-19T22:28:41.363Z,16.80
2019-02-19T22:31:12.371Z,16.30
2019-02-19T22:33:42.553Z,16.73
2019-02-19T22:36:13.477Z,16.80
2019-02-19T22:38:43.165Z,17.53
2019-02-19T22:41:15.441Z,16.70
2019-02-19T22:43:45.566Z,17.57
2019-02-19T22:46:15.076Z,17.40
2019-02-19T22:48:44.495Z,16.10
2019-02-19T22:51:13.957Z,18.10
2019-02-19T22:53:44.979Z,17.40
2019-02-19T22:56:15.921Z,17.43
2019-02-19T22:58:46.465Z,17.83
2019-02-19T23:01:23.429Z,17.33
2019-02-19T23:03:53.005Z,17.63
2019-02-19T23:06:22.480Z,17.63
2019-02-19T23:08:52.107Z,16.67
2019-02-19T23:11:21.767Z,17.80
2019-02-19T23:13:51.286Z,18.17
2019-02-19T23:16:22.728Z,16.93
2019-02-19T23:18:52.005Z,16.53
2019-02-19T23:21:21.365Z,17.30
2019-02-19T23:23:50.693Z,17.17
2019-02-19T23:26:20.092Z,17.60
2019-02-19T23:28:49.350Z,17.70
2019-02-19T23:31:18.738Z,17.00
2019-02-19T23:33:47.970Z,19.23
2019-02-19T23:36:27.428Z,18.27
2019-02-19T23:38:56.753Z,17.93
2019-02-19T23:41:26.065Z,18.00
2019-02-19T23:43:57.132Z,17.97
2019-02-19T23:46:26.421Z,17.73
2019-02-19T23:48:55.652Z,18.10
2019-02-19T23:51:25.054Z,17.60
2019-02-19T23:53:54.411Z,18.03
2019-02-19T23:56:23.811Z,16.63
2019-02-19T23:58:53.159Z,17.33
